createdAt,value
2023-08-24T00:00:57.308Z,3.05
2023-08-24T00:03:28.476Z,3.85
2023-08-24T00:05:59.634Z,3.25
2023-08-24T00:08:31.161Z,3.67
2023-08-24T00:11:05.510Z,3.55
2023-08-24T00:13:35.995Z,2.92
2023-08-24T00:16:07.788Z,3.78
2023-08-24T00:18:37.885Z,3.78
2023-08-24T00:21:09.152Z,3.45
2023-08-24T00:23:40.317Z,3.42
2023-08-24T00:26:14.167Z,3.53
2023-08-24T00:28:44.249Z,3.38
2023-08-24T00:31:15.690Z,3.40
2023-08-24T00:33:46.828Z,3.10
2023-08-24T00:36:19.242Z,3.42
2023-08-24T00:38:52.868Z,3.30
2023-08-24T00:41:26.695Z,3.17
2023-08-24T00:43:57.797Z,3.25
2023-08-24T00:46:31.585Z,3.00
2023-08-24T00:49:02.724Z,3.33
2023-08-24T00:51:32.974Z,3.25
2023-08-24T00:54:04.098Z,3.40
2023-08-24T00:56:38.050Z,3.33
2023-08-24T00:59:08.221Z,3.08
2023-08-24T01:01:39.551Z,3.50
2023-08-24T01:04:12.250Z,3.75
2023-08-24T01:06:43.449Z,3.75
2023-08-24T01:09:15.041Z,3.33
2023-08-24T01:12:00.571Z,3.53
2023-08-24T01:14:44.839Z,3.90
2023-08-24T01:17:20.183Z,3.70
2023-08-24T01:19:51.465Z,3.67
2023-08-24T01:22:37.152Z,3.47
2023-08-24T01:25:15.972Z,3.40
2023-08-24T01:27:52.624Z,3.40
2023-08-24T01:30:23.743Z,3.30
2023-08-24T01:32:54.883Z,2.95
2023-08-24T01:35:26.440Z,3.58
2023-08-24T01:37:57.662Z,3.83
2023-08-24T01:40:40.720Z,3.53
2023-08-24T01:43:20.055Z,3.35
2023-08-24T01:45:57.452Z,3.78
2023-08-24T01:48:28.753Z,3.45
2023-08-24T01:50:59.361Z,3.08
2023-08-24T01:53:30.418Z,4.13
2023-08-24T01:56:00.588Z,3.67
2023-08-24T01:58:33.256Z,3.05
2023-08-24T02:01:03.487Z,4.07
2023-08-24T02:03:34.086Z,3.65
2023-08-24T02:06:06.087Z,3.10
2023-08-24T02:08:36.309Z,3.33
2023-08-24T02:11:06.458Z,3.03
2023-08-24T02:13:39.107Z,3.08
2023-08-24T02:16:13.596Z,3.65
2023-08-24T02:18:43.782Z,3.70
2023-08-24T02:21:15.586Z,3.78
2023-08-24T02:23:47.034Z,3.45
2023-08-24T02:26:18.138Z,3.10
2023-08-24T02:28:51.977Z,4.00
2023-08-24T02:31:23.066Z,3.70
2023-08-24T02:33:54.213Z,3.10
2023-08-24T02:36:25.322Z,4.00
2023-08-24T02:38:56.395Z,3.63
2023-08-24T02:41:27.538Z,3.10
2023-08-24T02:44:00.237Z,3.67
2023-08-24T02:46:31.382Z,4.10
2023-08-24T02:49:02.483Z,3.85
2023-08-24T02:51:33.685Z,3.97
2023-08-24T02:54:05.172Z,4.25
2023-08-24T02:56:36.260Z,3.72
2023-08-24T02:59:10.230Z,3.47
2023-08-24T03:01:42.737Z,3.30
2023-08-24T03:04:13.858Z,3.22
2023-08-24T03:06:47.357Z,3.70
2023-08-24T03:09:17.766Z,3.75
2023-08-24T03:11:47.813Z,4.07
2023-08-24T03:14:20.510Z,3.65
2023-08-24T03:16:51.780Z,3.60
2023-08-24T03:19:22.909Z,3.95
2023-08-24T03:21:54.023Z,3.35
2023-08-24T03:24:24.105Z,3.30
2023-08-24T03:26:55.201Z,3.28
2023-08-24T03:29:28.910Z,3.80
2023-08-24T03:31:59.966Z,3.72
2023-08-24T03:34:32.451Z,3.13
2023-08-24T03:37:02.605Z,2.72
2023-08-24T03:39:33.765Z,4.45
2023-08-24T03:42:04.853Z,3.58
2023-08-24T03:44:38.808Z,3.03
2023-08-24T03:47:10.115Z,3.28
2023-08-24T03:49:41.570Z,3.95
2023-08-24T03:52:14.914Z,3.80
2023-08-24T03:54:46.441Z,3.80
2023-08-24T03:57:18.219Z,4.70
2023-08-24T03:59:51.226Z,3.47
2023-08-24T04:02:22.385Z,3.35
2023-08-24T04:04:56.517Z,3.40
2023-08-24T04:07:26.592Z,3.40
2023-08-24T04:09:56.651Z,4.63
2023-08-24T04:12:26.730Z,3.47
2023-08-24T04:15:00.613Z,3.60
2023-08-24T04:17:31.842Z,2.97
2023-08-24T04:20:02.948Z,3.80
2023-08-24T04:22:34.157Z,4.07
2023-08-24T04:25:05.698Z,4.15
2023-08-24T04:27:36.344Z,3.53
2023-08-24T04:30:13.573Z,3.45
2023-08-24T04:32:44.847Z,3.33
2023-08-24T04:35:16.060Z,4.00
2023-08-24T04:37:47.206Z,4.07
2023-08-24T04:40:18.559Z,3.67
2023-08-24T04:42:48.644Z,3.60
2023-08-24T04:45:22.724Z,4.75
2023-08-24T04:47:54.033Z,3.85
2023-08-24T04:50:25.398Z,3.70
2023-08-24T04:52:56.482Z,4.47
2023-08-24T04:55:27.093Z,4.50
2023-08-24T04:57:58.203Z,4.20
2023-08-24T05:00:34.335Z,5.13
2023-08-24T05:03:05.957Z,4.30
2023-08-24T05:05:38.664Z,3.83
2023-08-24T05:08:13.160Z,3.40
2023-08-24T05:10:44.908Z,3.38
2023-08-24T05:13:16.036Z,3.17
2023-08-24T05:15:50.776Z,4.65
2023-08-24T05:18:21.866Z,3.92
2023-08-24T05:20:52.439Z,3.55
2023-08-24T05:23:23.721Z,4.57
2023-08-24T05:25:54.809Z,3.42
2023-08-24T05:28:25.955Z,4.00
2023-08-24T05:30:59.721Z,3.95
2023-08-24T05:33:32.326Z,3.30
2023-08-24T05:36:03.559Z,3.47
2023-08-24T05:38:35.146Z,3.30
2023-08-24T05:41:06.256Z,3.42
2023-08-24T05:43:37.346Z,3.15
2023-08-24T05:46:11.171Z,4.07
2023-08-24T05:48:42.364Z,4.22
2023-08-24T05:51:13.730Z,4.50
2023-08-24T05:53:45.380Z,4.40
2023-08-24T05:56:16.751Z,4.38
2023-08-24T05:58:46.795Z,4.22
2023-08-24T06:01:20.524Z,4.75
2023-08-24T06:03:51.897Z,3.30
2023-08-24T06:06:23.089Z,3.60
2023-08-24T06:08:53.208Z,3.50
2023-08-24T06:11:24.317Z,3.00
2023-08-24T06:13:56.037Z,3.83
2023-08-24T06:16:30.111Z,4.38
2023-08-24T06:19:01.256Z,3.08
2023-08-24T06:21:32.494Z,3.95
2023-08-24T06:24:05.133Z,4.40
2023-08-24T06:26:36.231Z,4.22
2023-08-24T06:29:07.481Z,4.00
2023-08-24T06:31:41.249Z,3.85
2023-08-24T06:34:12.473Z,4.60
2023-08-24T06:36:43.788Z,5.05
2023-08-24T06:39:14.955Z,3.70
2023-08-24T06:41:46.042Z,4.25
2023-08-24T06:44:17.158Z,4.05
2023-08-24T06:46:50.954Z,3.75
2023-08-24T06:49:22.035Z,4.18
2023-08-24T06:51:53.147Z,3.22
2023-08-24T06:54:25.623Z,3.80
2023-08-24T06:56:57.861Z,2.63
2023-08-24T06:59:29.039Z,3.15
2023-08-24T07:02:05.336Z,3.53
2023-08-24T07:04:35.674Z,4.13
2023-08-24T07:07:07.100Z,4.82
2023-08-24T07:09:38.690Z,4.47
2023-08-24T07:12:11.430Z,4.63
2023-08-24T07:14:42.781Z,4.10
2023-08-24T07:17:16.817Z,3.53
2023-08-24T07:19:46.901Z,4.50
2023-08-24T07:22:18.327Z,4.05
2023-08-24T07:24:53.426Z,3.67
2023-08-24T07:27:24.710Z,4.40
2023-08-24T07:29:55.800Z,3.55
2023-08-24T07:32:31.026Z,3.80
2023-08-24T07:35:02.622Z,3.65
2023-08-24T07:37:33.717Z,4.35
2023-08-24T07:40:05.224Z,3.88
2023-08-24T07:42:48.237Z,3.72
2023-08-24T07:45:19.461Z,4.10
2023-08-24T07:47:53.732Z,2.85
2023-08-24T07:50:26.347Z,3.75
2023-08-24T07:52:58.003Z,4.32
2023-08-24T07:55:29.626Z,3.95
2023-08-24T07:58:00.751Z,4.38
2023-08-24T08:00:32.074Z,3.53
2023-08-24T08:03:04.919Z,3.33
2023-08-24T08:05:36.116Z,3.28
2023-08-24T08:08:08.531Z,3.75
2023-08-24T08:10:38.616Z,2.67
2023-08-24T08:13:11.702Z,3.47
2023-08-24T08:15:42.309Z,3.17
2023-08-24T08:18:15.087Z,2.83
2023-08-24T08:20:46.190Z,2.38
2023-08-24T08:23:17.330Z,2.50
2023-08-24T08:25:47.588Z,2.30
2023-08-24T08:28:19.012Z,2.03
2023-08-24T08:30:52.175Z,2.65
2023-08-24T08:33:25.876Z,2.40
2023-08-24T08:35:57.038Z,2.85
2023-08-24T08:38:29.599Z,2.30
2023-08-24T08:41:06.243Z,2.33
2023-08-24T08:43:37.466Z,2.55
2023-08-24T08:46:08.843Z,2.47
2023-08-24T08:48:43.202Z,2.30
2023-08-24T08:51:16.315Z,2.47
2023-08-24T08:53:47.505Z,2.42
2023-08-24T08:56:19.899Z,2.00
2023-08-24T08:58:51.854Z,2.15
2023-08-24T09:01:23.447Z,1.95
2023-08-24T09:03:57.586Z,2.00
2023-08-24T09:06:28.882Z,2.42
2023-08-24T09:09:01.131Z,2.60
2023-08-24T09:11:32.222Z,2.30
2023-08-24T09:14:03.300Z,2.40
2023-08-24T09:16:34.616Z,2.55
2023-08-24T09:19:11.160Z,2.22
2023-08-24T09:21:43.391Z,2.33
2023-08-24T09:24:16.340Z,1.95
2023-08-24T09:26:46.703Z,2.22
2023-08-24T09:29:19.318Z,1.83
2023-08-24T09:31:51.000Z,2.20
2023-08-24T09:34:32.225Z,1.98
2023-08-24T09:37:02.359Z,1.98
2023-08-24T09:39:32.471Z,2.20
2023-08-24T09:42:06.505Z,2.03
2023-08-24T09:44:36.568Z,2.15
2023-08-24T09:47:13.032Z,1.92
2023-08-24T09:49:45.710Z,1.92
2023-08-24T09:52:15.963Z,1.73
2023-08-24T09:54:48.803Z,1.80
2023-08-24T09:57:19.327Z,1.83
2023-08-24T09:59:52.853Z,1.67
2023-08-24T10:02:27.608Z,1.70
2023-08-24T10:05:01.043Z,1.77
2023-08-24T10:07:31.431Z,1.53
2023-08-24T10:10:06.922Z,1.88
2023-08-24T10:12:54.895Z,1.65
2023-08-24T10:15:25.916Z,1.92
2023-08-24T10:17:57.534Z,1.70
2023-08-24T10:20:31.556Z,2.10
2023-08-24T10:23:05.428Z,1.70
2023-08-24T10:28:07.872Z,2.25
2023-08-24T10:30:40.637Z,1.98
2023-08-24T10:33:12.662Z,1.50
2023-08-24T10:35:48.134Z,1.70
2023-08-24T10:38:39.240Z,1.90
2023-08-24T10:41:11.030Z,1.85
2023-08-24T10:43:42.606Z,2.25
2023-08-24T10:46:20.484Z,1.63
2023-08-24T10:49:04.462Z,1.42
2023-08-24T10:51:48.224Z,1.92
2023-08-24T10:54:19.667Z,1.48
2023-08-24T10:56:59.983Z,1.80
2023-08-24T10:59:51.053Z,1.95
2023-08-24T11:02:23.580Z,2.15
2023-08-24T11:05:23.244Z,2.05
2023-08-24T11:07:58.806Z,1.70
2023-08-24T11:10:32.482Z,1.60
2023-08-24T11:13:10.680Z,1.85
2023-08-24T11:15:46.691Z,1.52
2023-08-24T11:18:34.918Z,2.00
2023-08-24T11:21:07.865Z,1.63
2023-08-24T11:23:41.882Z,1.73
2023-08-24T11:26:11.932Z,1.45
2023-08-24T11:28:42.044Z,1.80
2023-08-24T11:31:13.824Z,1.80
2023-08-24T11:33:44.055Z,2.13
2023-08-24T11:36:14.145Z,2.03
2023-08-24T11:38:48.527Z,2.13
2023-08-24T11:41:20.799Z,1.77
2023-08-24T11:43:53.013Z,1.70
2023-08-24T11:46:23.842Z,1.98
2023-08-24T11:48:54.115Z,1.77
2023-08-24T11:51:37.736Z,1.63
2023-08-24T11:54:15.823Z,1.50
2023-08-24T11:56:47.830Z,2.53
2023-08-24T11:59:20.008Z,1.73
2023-08-24T12:01:51.395Z,1.85
2023-08-24T12:04:21.529Z,2.05
2023-08-24T12:06:51.686Z,2.17
2023-08-24T12:09:25.105Z,2.17
2023-08-24T12:12:00.076Z,1.67
2023-08-24T12:14:30.124Z,1.92
2023-08-24T12:17:00.181Z,2.03
2023-08-24T12:19:30.229Z,1.95
2023-08-24T12:22:00.527Z,1.85
2023-08-24T12:24:33.409Z,1.80
2023-08-24T12:27:04.822Z,2.03
2023-08-24T12:29:34.967Z,1.80
2023-08-24T12:32:05.077Z,1.77
2023-08-24T12:34:35.206Z,1.65
2023-08-24T12:37:05.722Z,2.00
2023-08-24T12:39:43.232Z,1.98
2023-08-24T12:42:13.299Z,1.75
2023-08-24T12:44:44.217Z,1.77
2023-08-24T12:47:14.375Z,1.60
2023-08-24T12:49:44.703Z,2.03
2023-08-24T12:52:14.799Z,2.03
2023-08-24T12:54:47.619Z,1.65
2023-08-24T12:57:17.686Z,1.85
2023-08-24T12:59:48.306Z,1.80
2023-08-24T13:02:29.217Z,1.77
2023-08-24T13:05:05.450Z,1.70
2023-08-24T13:07:36.482Z,1.70
2023-08-24T13:10:10.602Z,1.80
2023-08-24T13:12:40.676Z,1.45
2023-08-24T13:15:12.755Z,1.70
2023-08-24T13:17:42.895Z,1.67
2023-08-24T13:20:13.355Z,1.58
2023-08-24T13:22:43.495Z,1.63
2023-08-24T13:25:16.604Z,1.70
2023-08-24T13:27:46.710Z,1.90
2023-08-24T13:30:17.359Z,1.95
2023-08-24T13:32:47.507Z,1.83
2023-08-24T13:35:17.815Z,1.90
2023-08-24T13:37:47.912Z,2.10
2023-08-24T13:40:20.911Z,1.70
2023-08-24T13:42:51.148Z,1.88
2023-08-24T13:45:21.526Z,1.98
2023-08-24T13:47:51.716Z,1.88
2023-08-24T13:50:22.335Z,1.95
2023-08-24T13:52:53.122Z,1.95
2023-08-24T13:55:26.033Z,1.23
2023-08-24T13:57:56.808Z,1.40
2023-08-24T14:00:27.572Z,1.70
2023-08-24T14:02:57.806Z,1.60
2023-08-24T14:05:27.896Z,1.70
2023-08-24T14:07:58.203Z,1.42
2023-08-24T14:10:31.171Z,1.80
2023-08-24T14:13:01.632Z,1.92
2023-08-24T14:15:31.819Z,1.50
2023-08-24T14:18:01.914Z,1.98
2023-08-24T14:20:32.345Z,2.00
2023-08-24T14:23:04.738Z,1.83
2023-08-24T14:25:38.884Z,2.10
2023-08-24T14:28:11.211Z,1.73
2023-08-24T14:30:43.181Z,1.90
2023-08-24T14:33:14.300Z,1.60
2023-08-24T14:35:45.388Z,1.63
2023-08-24T14:38:16.576Z,1.70
2023-08-24T14:40:49.603Z,2.00
2023-08-24T14:43:20.765Z,1.80
2023-08-24T14:45:52.351Z,1.98
2023-08-24T14:48:24.060Z,1.80
2023-08-24T14:50:55.560Z,1.67
2023-08-24T14:53:26.785Z,1.95
2023-08-24T14:56:01.804Z,1.63
2023-08-24T14:58:31.870Z,1.63
2023-08-24T15:01:03.018Z,2.13
2023-08-24T15:03:34.305Z,1.50
2023-08-24T15:06:08.154Z,2.03
2023-08-24T15:08:39.659Z,2.28
2023-08-24T15:11:12.361Z,1.73
2023-08-24T15:13:44.281Z,2.20
2023-08-24T15:16:14.445Z,2.05
2023-08-24T15:18:45.589Z,2.55
2023-08-24T15:21:17.783Z,1.98
2023-08-24T15:23:50.382Z,2.15
2023-08-24T15:26:24.662Z,2.10
2023-08-24T15:29:13.207Z,2.25
2023-08-24T15:31:44.386Z,2.08
2023-08-24T15:34:14.879Z,2.72
2023-08-24T15:36:46.437Z,2.22
2023-08-24T15:39:17.511Z,2.97
2023-08-24T15:41:50.222Z,2.75
2023-08-24T15:44:21.303Z,2.60
2023-08-24T15:46:54.125Z,2.58
2023-08-24T15:49:26.681Z,2.30
2023-08-24T15:51:58.240Z,2.78
2023-08-24T15:54:29.410Z,2.63
2023-08-24T15:57:03.138Z,2.58
2023-08-24T15:59:34.259Z,3.15
2023-08-24T16:02:05.876Z,2.90
2023-08-24T16:04:37.007Z,2.17
2023-08-24T16:07:08.216Z,2.70
2023-08-24T16:09:39.288Z,2.42
2023-08-24T16:12:13.258Z,2.42
2023-08-24T16:14:44.550Z,2.47
2023-08-24T16:17:14.616Z,2.72
2023-08-24T16:19:48.409Z,2.30
2023-08-24T16:22:19.727Z,3.17
2023-08-24T16:24:50.256Z,3.38
2023-08-24T16:27:23.965Z,2.83
2023-08-24T16:29:55.221Z,2.67
2023-08-24T16:32:27.302Z,2.72
2023-08-24T16:34:58.509Z,2.55
2023-08-24T16:37:30.991Z,3.00
2023-08-24T16:40:03.768Z,2.47
2023-08-24T16:42:36.492Z,2.50
2023-08-24T16:45:09.273Z,2.30
2023-08-24T16:47:40.449Z,2.40
2023-08-24T16:50:13.517Z,2.03
2023-08-24T16:52:44.629Z,1.95
2023-08-24T16:55:16.224Z,1.90
2023-08-24T16:57:49.241Z,1.60
2023-08-24T17:00:21.855Z,1.30
2023-08-24T17:02:53.479Z,1.60
2023-08-24T17:05:24.894Z,1.58
2023-08-24T17:08:09.613Z,1.40
2023-08-24T17:10:42.060Z,1.30
2023-08-24T17:13:14.760Z,1.23
2023-08-24T17:15:45.858Z,1.67
2023-08-24T17:18:15.999Z,1.60
2023-08-24T17:20:47.716Z,1.95
2023-08-24T17:23:18.880Z,1.83
2023-08-24T17:25:50.301Z,1.92
2023-08-24T17:28:24.546Z,1.88
2023-08-24T17:30:55.499Z,1.38
2023-08-24T17:33:26.694Z,1.08
2023-08-24T17:36:01.142Z,1.10
2023-08-24T17:38:33.693Z,1.60
2023-08-24T17:41:08.154Z,1.17
2023-08-24T17:43:41.626Z,1.25
2023-08-24T17:46:13.056Z,1.60
2023-08-24T17:48:44.287Z,1.48
2023-08-24T17:51:15.407Z,1.52
2023-08-24T17:53:46.781Z,1.40
2023-08-24T17:56:16.905Z,1.65
2023-08-24T17:58:50.647Z,1.35
2023-08-24T18:01:21.800Z,1.73
2023-08-24T18:03:54.171Z,1.27
2023-08-24T18:06:24.289Z,1.33
2023-08-24T18:08:54.399Z,1.70
2023-08-24T18:11:25.595Z,1.60
2023-08-24T18:13:59.308Z,1.55
2023-08-24T18:16:30.459Z,1.27
2023-08-24T18:19:01.897Z,1.70
2023-08-24T18:21:32.055Z,1.88
2023-08-24T18:24:03.251Z,1.88
2023-08-24T18:26:34.335Z,1.63
2023-08-24T18:29:08.111Z,2.30
2023-08-24T18:31:40.947Z,1.30
2023-08-24T18:34:12.192Z,1.40
2023-08-24T18:36:43.295Z,1.15
2023-08-24T18:39:14.896Z,1.25
2023-08-24T18:41:46.076Z,1.65
2023-08-24T18:44:20.798Z,1.50
2023-08-24T18:46:52.763Z,1.35
2023-08-24T18:49:24.584Z,1.30
2023-08-24T18:51:56.454Z,2.47
2023-08-24T18:54:28.402Z,2.05
2023-08-24T18:57:00.980Z,1.92
2023-08-24T18:59:34.872Z,1.70
2023-08-24T19:02:06.180Z,1.60
2023-08-24T19:04:37.499Z,2.13
2023-08-24T19:07:08.703Z,1.40
2023-08-24T19:09:40.709Z,1.67
2023-08-24T19:12:11.999Z,1.40
2023-08-24T19:14:45.673Z,2.15
2023-08-24T19:17:16.778Z,2.30
2023-08-24T19:19:47.900Z,1.85
2023-08-24T19:22:18.003Z,2.03
2023-08-24T19:24:49.269Z,1.98
2023-08-24T19:27:21.015Z,2.33
2023-08-24T19:29:55.033Z,1.58
2023-08-24T19:32:26.288Z,1.45
2023-08-24T19:34:57.380Z,1.58
2023-08-24T19:37:28.452Z,1.88
2023-08-24T19:39:59.572Z,1.77
2023-08-24T19:42:31.185Z,2.17
2023-08-24T19:45:04.900Z,2.17
2023-08-24T19:47:36.026Z,2.22
2023-08-24T19:50:07.858Z,1.92
2023-08-24T19:52:43.989Z,2.25
2023-08-24T19:55:15.132Z,1.90
2023-08-24T19:57:46.223Z,2.38
2023-08-24T20:00:22.134Z,2.70
2023-08-24T20:02:55.420Z,1.83
2023-08-24T20:05:26.042Z,2.30
2023-08-24T20:07:56.596Z,1.75
2023-08-24T20:10:27.313Z,1.83
2023-08-24T20:12:57.391Z,1.70
2023-08-24T20:15:31.257Z,1.83
2023-08-24T20:18:02.388Z,1.35
2023-08-24T20:20:33.498Z,1.85
2023-08-24T20:23:04.593Z,1.98
2023-08-24T20:25:34.786Z,2.20
2023-08-24T20:28:07.861Z,2.22
2023-08-24T20:30:41.588Z,2.10
2023-08-24T20:33:12.848Z,2.03
2023-08-24T20:35:44.331Z,2.40
2023-08-24T20:38:15.703Z,2.03
2023-08-24T20:40:46.802Z,2.47
2023-08-24T20:43:18.092Z,2.33
2023-08-24T20:45:52.566Z,2.03
2023-08-24T20:48:23.807Z,2.67
2023-08-24T20:51:00.742Z,2.30
2023-08-24T20:53:31.850Z,2.90
2023-08-24T20:56:02.940Z,2.40
2023-08-24T20:58:34.094Z,2.38
2023-08-24T21:01:10.576Z,2.33
2023-08-24T21:03:41.775Z,2.45
2023-08-24T21:06:12.963Z,2.92
2023-08-24T21:08:49.091Z,3.90
2023-08-24T21:11:24.891Z,3.90
2023-08-24T21:13:55.007Z,2.80
2023-08-24T21:16:27.693Z,3.25
2023-08-24T21:18:57.853Z,3.10
2023-08-24T21:21:28.005Z,2.58
2023-08-24T21:23:59.173Z,2.75
2023-08-24T21:26:31.441Z,2.42
2023-08-24T21:29:02.730Z,1.75
2023-08-24T21:31:37.171Z,2.38
2023-08-24T21:34:08.275Z,2.05
2023-08-24T21:36:39.348Z,1.75
2023-08-24T21:39:10.456Z,2.42
2023-08-24T21:41:41.573Z,2.30
2023-08-24T21:44:12.642Z,2.00
2023-08-24T21:46:46.386Z,2.35
2023-08-24T21:49:17.735Z,2.00
2023-08-24T21:51:47.963Z,2.80
2023-08-24T21:54:19.128Z,3.03
2023-08-24T21:56:49.241Z,3.30
2023-08-24T21:59:20.400Z,2.83
2023-08-24T22:01:54.251Z,2.65
2023-08-24T22:04:25.441Z,2.38
2023-08-24T22:06:55.624Z,1.98
2023-08-24T22:09:26.983Z,1.88
2023-08-24T22:11:58.093Z,2.75
2023-08-24T22:14:29.219Z,2.88
2023-08-24T22:17:03.230Z,2.63
2023-08-24T22:19:34.285Z,2.20
2023-08-24T22:22:05.394Z,2.03
2023-08-24T22:24:36.515Z,2.17
2023-08-24T22:27:07.690Z,2.22
2023-08-24T22:29:38.829Z,2.00
2023-08-24T22:32:13.123Z,2.08
2023-08-24T22:34:43.822Z,2.00
2023-08-24T22:37:14.897Z,2.30
2023-08-24T22:39:45.348Z,1.35
2023-08-24T22:42:16.502Z,1.80
2023-08-24T22:44:48.254Z,1.88
2023-08-24T22:47:21.970Z,1.70
2023-08-24T22:49:53.077Z,1.48
2023-08-24T22:52:23.120Z,1.70
2023-08-24T22:54:54.430Z,1.40
2023-08-24T22:57:25.717Z,1.52
2023-08-24T22:59:56.763Z,1.48
2023-08-24T23:02:30.612Z,1.25
2023-08-24T23:05:01.339Z,1.10
2023-08-24T23:07:32.935Z,1.50
2023-08-24T23:10:07.032Z,1.20
2023-08-24T23:12:38.282Z,1.25
2023-08-24T23:15:12.074Z,1.52
2023-08-24T23:17:45.896Z,1.60
2023-08-24T23:20:17.509Z,1.48
2023-08-24T23:22:48.678Z,1.30
2023-08-24T23:25:20.121Z,1.40
2023-08-24T23:27:51.478Z,1.70
2023-08-24T23:30:23.091Z,1.30
2023-08-24T23:32:56.858Z,1.20
2023-08-24T23:35:28.074Z,1.33
2023-08-24T23:37:58.213Z,1.63
2023-08-24T23:40:29.348Z,0.93
2023-08-24T23:43:00.424Z,1.38
2023-08-24T23:45:32.654Z,1.00
2023-08-24T23:48:05.378Z,1.23
2023-08-24T23:50:36.471Z,1.70
2023-08-24T23:53:07.887Z,1.73
2023-08-24T23:55:41.186Z,1.40
2023-08-24T23:58:12.569Z,1.33
